Time;durP1;ratioP1;P1;durP2;ratioP2;P2;SDS_P1;SDS_P2;PMS_P1;PMS_P2;Temp;Humidity;BMP_temperature;BMP_pressure;BME280_temperature;BME280_humidity;BME280_pressure;Samples;Min_cycle;Max_cycle;Signal;HPM_P1;HPM_P2
2023/08/04 00:00:33;;;;;;;73.78;69.22;;;;;;;17.02;79.39;99447.43;1744556;82;25600;-66
2023/08/04 00:03:02;;;;;;;71.90;67.47;;;;;;;17.02;79.35;99448.80;1744589;81;25638;-66
2023/08/04 00:05:28;;;;;;;71.25;66.80;;;;;;;17.05;79.39;99447.28;1744654;80;25639;-67
2023/08/04 00:07:56;;;;;;;73.60;69.20;;;;;;;17.09;79.31;99457.06;1744597;82;27345;-67
2023/08/04 00:10:24;;;;;;;72.85;68.40;;;;;;;17.11;79.14;99461.60;1744455;82;25754;-67
2023/08/04 00:12:50;;;;;;;72.75;68.35;;;;;;;17.12;79.00;99449.50;1744589;80;25487;-67
2023/08/04 00:15:17;;;;;;;72.65;68.35;;;;;;;17.13;78.87;99448.34;1744560;80;25978;-67
2023/08/04 00:17:43;;;;;;;73.78;68.92;;;;;;;17.15;78.76;99463.00;1744608;80;25613;-67
2023/08/04 00:20:11;;;;;;;72.20;67.62;;;;;;;17.15;78.74;99467.88;1744524;82;27355;-66
2023/08/04 00:22:40;;;;;;;72.50;68.12;;;;;;;17.16;78.64;99459.09;1744474;80;25695;-66
2023/08/04 00:25:08;;;;;;;71.05;66.65;;;;;;;17.18;78.58;99468.51;1744565;82;25447;-67
2023/08/04 00:27:35;;;;;;;69.95;65.85;;;;;;;17.17;78.45;99468.29;1743071;82;25675;-67
2023/08/04 00:30:03;;;;;;;70.83;66.53;;;;;;;17.18;78.34;99469.09;1744527;82;25378;-67
2023/08/04 00:32:29;;;;;;;71.28;66.95;;;;;;;17.18;78.30;99472.61;1744566;80;27338;-66
2023/08/04 00:34:59;;;;;;;70.95;66.75;;;;;;;17.21;78.27;99467.55;1744457;80;25445;-66
2023/08/04 00:37:26;;;;;;;72.12;67.87;;;;;;;17.24;78.15;99465.44;1744633;80;25508;-67
2023/08/04 00:39:52;;;;;;;70.80;66.45;;;;;;;17.27;78.11;99459.23;1744557;80;35187;-67
2023/08/04 00:42:18;;;;;;;71.82;67.22;;;;;;;17.29;77.99;99466.47;1744606;80;32364;-67
2023/08/04 00:44:45;;;;;;;71.75;67.45;;;;;;;17.31;77.78;99464.14;1744488;81;29569;-67
2023/08/04 00:47:12;;;;;;;71.97;67.35;;;;;;;17.31;77.65;99474.48;1744469;82;25656;-67
2023/08/04 00:49:41;;;;;;;71.00;66.77;;;;;;;17.32;77.61;99473.34;1744563;80;25407;-67
2023/08/04 00:52:08;;;;;;;71.40;67.10;;;;;;;17.32;77.47;99478.02;1744611;80;25616;-67
2023/08/04 00:54:37;;;;;;;71.05;66.60;;;;;;;17.32;77.42;99484.27;1759621;80;25535;-66
2023/08/04 00:57:06;;;;;;;71.90;67.50;;;;;;;17.31;77.30;99489.52;1744817;80;27319;-67
2023/08/04 00:59:33;;;;;;;73.42;68.85;;;;;;;17.30;77.28;99495.38;1744564;82;25556;-67
2023/08/04 01:01:59;;;;;;;71.55;67.35;;;;;;;17.27;77.19;99485.97;1744509;80;25234;-67
2023/08/04 01:04:27;;;;;;;72.12;67.75;;;;;;;17.24;77.17;99482.61;1744516;82;25458;-67
2023/08/04 01:07:17;;;;;;;72.17;67.92;;;;;;;17.25;77.12;99488.89;1744584;81;25447;-67
2023/08/04 01:10:12;;;;;;;71.62;67.20;;;;;;;17.22;77.19;99480.84;1744555;82;27408;-68
2023/08/04 01:12:50;;;;;;;72.27;67.97;;;;;;;17.22;77.20;99491.77;1744442;82;25616;-67
2023/08/04 01:15:18;;;;;;;71.53;67.12;;;;;;;17.20;77.17;99485.09;1744581;82;25514;-66
2023/08/04 01:17:45;;;;;;;71.87;67.58;;;;;;;17.19;77.24;99492.52;1744542;80;25634;-67
2023/08/04 01:20:12;;;;;;;70.72;66.37;;;;;;;17.17;77.25;99498.34;1744512;82;25543;-66
2023/08/04 01:22:38;;;;;;;71.10;66.70;;;;;;;17.17;77.24;99496.20;1744570;80;27389;-67
2023/08/04 01:25:07;;;;;;;72.15;67.67;;;;;;;17.16;77.28;99506.91;1759485;80;25895;-67
2023/08/04 01:27:44;;;;;;;73.33;68.90;;;;;;;17.14;77.27;99501.03;1743227;82;25399;-67
2023/08/04 01:30:16;;;;;;;73.30;68.62;;;;;;;17.14;77.29;99496.35;1744557;80;25482;-67
2023/08/04 01:32:43;;;;;;;74.87;70.22;;;;;;;17.13;77.28;99499.48;1744310;81;25403;-67
2023/08/04 01:35:12;;;;;;;71.85;67.65;;;;;;;17.11;77.34;99498.48;1744528;82;29438;-67
2023/08/04 01:37:39;;;;;;;73.23;68.90;;;;;;;17.10;77.39;99490.07;1744688;80;25390;-67
2023/08/04 01:40:08;;;;;;;73.30;68.80;;;;;;;17.09;77.33;99483.02;1744472;82;25554;-67
2023/08/04 01:42:34;;;;;;;72.75;67.62;;;;;;;17.07;77.39;99481.84;1744578;82;25995;-67
2023/08/04 01:45:00;;;;;;;72.85;68.02;;;;;;;17.07;77.35;99488.66;1745551;80;32269;-67
2023/08/04 01:47:26;;;;;;;71.55;66.95;;;;;;;17.04;77.40;99487.45;1749589;82;27298;-70
2023/08/04 01:49:55;;;;;;;73.80;69.32;;;;;;;17.03;77.37;99494.68;1749465;81;25659;-67
2023/08/04 01:52:23;;;;;;;73.07;68.17;;;;;;;16.99;77.33;99497.34;1749563;81;25413;-67
2023/08/04 01:54:49;;;;;;;74.55;70.05;;;;;;;16.97;77.42;99507.86;1749544;81;25930;-67
2023/08/04 01:57:15;;;;;;;72.17;67.80;;;;;;;16.94;77.56;99514.86;1749624;81;32446;-67
2023/08/04 01:59:41;;;;;;;74.17;69.82;;;;;;;16.91;77.55;99506.04;1749550;81;27923;-67
2023/08/04 02:02:30;;;;;;;72.75;68.33;;;;;;;16.88;77.64;99506.77;1749491;81;27316;-67
2023/08/04 02:04:57;;;;;;;71.82;67.47;;;;;;;16.86;77.76;99506.36;1769847;81;25428;-65
2023/08/04 02:07:23;;;;;;;73.60;68.83;;;;;;;16.81;77.87;99511.53;1769910;81;25546;-66
2023/08/04 02:09:50;;;;;;;74.90;70.40;;;;;;;16.79;78.04;99512.48;1771565;81;25630;-66
2023/08/04 02:12:16;;;;;;;72.25;67.90;;;;;;;16.76;78.07;99507.76;1771875;81;27293;-66
2023/08/04 02:14:42;;;;;;;73.70;69.30;;;;;;;16.74;78.07;99500.52;1771820;81;26014;-67
2023/08/04 02:17:08;;;;;;;72.17;67.37;;;;;;;16.73;78.20;99509.08;1771962;81;25602;-66
2023/08/04 02:19:37;;;;;;;73.28;68.87;;;;;;;16.70;78.28;99512.55;1771877;81;25492;-66
2023/08/04 02:22:05;;;;;;;72.87;68.25;;;;;;;16.66;78.34;99512.50;1771968;81;25377;-66
2023/08/04 02:24:31;;;;;;;74.62;69.87;;;;;;;16.62;78.37;99513.81;1771929;81;27380;-65
2023/08/04 02:26:57;;;;;;;74.45;69.53;;;;;;;16.58;78.46;99521.18;1771844;81;32825;-65
2023/08/04 02:29:23;;;;;;;73.07;68.42;;;;;;;16.54;78.65;99530.47;1771929;81;25512;-65
2023/08/04 02:31:50;;;;;;;74.77;70.20;;;;;;;16.49;78.86;99526.09;1771934;80;25840;-65
2023/08/04 02:34:16;;;;;;;74.42;69.62;;;;;;;16.44;79.01;99530.50;1771902;81;25522;-68
2023/08/04 02:36:42;;;;;;;72.85;68.35;;;;;;;16.40;79.12;99531.81;1772011;81;27300;-67
2023/08/04 02:39:09;;;;;;;73.65;68.97;;;;;;;16.35;79.22;99526.67;1772027;81;25856;-67
2023/08/04 02:41:35;;;;;;;73.33;68.80;;;;;;;16.33;79.56;99537.17;1741609;81;25555;-67
2023/08/04 02:44:03;;;;;;;73.30;68.85;;;;;;;16.30;79.59;99547.45;1741629;81;26375;-67
2023/08/04 02:46:30;;;;;;;72.30;67.92;;;;;;;16.27;79.84;99548.17;1772107;81;25543;-67
2023/08/04 02:48:56;;;;;;;78.35;73.55;;;;;;;16.23;79.96;99548.70;1772047;81;27362;-67
2023/08/04 02:51:22;;;;;;;73.35;68.92;;;;;;;16.21;79.95;99549.07;1771933;81;25540;-68
2023/08/04 02:53:50;;;;;;;75.28;70.78;;;;;;;16.19;80.13;99539.66;1772074;81;25560;-65
2023/08/04 02:56:18;;;;;;;73.80;69.30;;;;;;;16.17;80.28;99540.61;1772072;81;25555;-65
2023/08/04 02:58:47;;;;;;;74.65;70.10;;;;;;;16.14;80.52;99546.78;1772131;81;25436;-65
2023/08/04 03:01:15;;;;;;;72.47;68.00;;;;;;;16.11;80.73;99551.05;1772111;81;27328;-65
2023/08/04 03:03:42;;;;;;;73.87;69.07;;;;;;;16.09;80.68;99554.72;1769564;80;25366;-65
2023/08/04 03:06:09;;;;;;;74.10;69.62;;;;;;;16.08;80.87;99565.98;1766599;81;25539;-65
2023/08/04 03:08:36;;;;;;;73.65;69.32;;;;;;;16.04;81.03;99563.98;1766599;81;25590;-66
2023/08/04 03:11:10;;;;;;;73.47;69.03;;;;;;;16.02;81.01;99568.21;1766628;81;25506;-66
2023/08/04 03:13:38;;;;;;;72.92;68.47;;;;;;;16.00;81.19;99566.43;1770679;80;27362;-67
2023/08/04 03:16:07;;;;;;;74.83;70.27;;;;;;;15.96;81.20;99566.95;1766777;81;25570;-66
2023/08/04 03:18:33;;;;;;;73.75;69.15;;;;;;;15.93;81.53;99577.22;1766627;81;25440;-67
2023/08/04 03:21:03;;;;;;;76.53;72.00;;;;;;;15.91;81.69;99575.44;1745063;81;25625;-66
2023/08/04 03:23:31;;;;;;;73.92;69.30;;;;;;;15.88;81.81;99582.39;1766763;81;25365;-67
2023/08/04 03:25:57;;;;;;;77.78;72.87;;;;;;;15.87;82.05;99590.37;1770643;80;27238;-67
2023/08/04 03:28:23;;;;;;;74.40;69.70;;;;;;;15.87;82.18;99589.01;1766514;81;25401;-66
2023/08/04 03:30:50;;;;;;;76.20;71.55;;;;;;;15.86;82.33;99594.23;1766552;81;25642;-66
2023/08/04 03:33:17;;;;;;;74.55;69.97;;;;;;;15.85;82.50;99588.00;1766512;81;27473;-66
2023/08/04 03:35:43;;;;;;;76.30;71.50;;;;;;;15.84;82.66;99590.50;1745113;81;25529;-66
2023/08/04 03:38:11;;;;;;;73.80;69.30;;;;;;;15.86;82.79;99598.33;1766577;81;27295;-67
2023/08/04 03:40:37;;;;;;;76.12;71.42;;;;;;;15.86;82.74;99605.92;1766522;81;27137;-66
2023/08/04 03:43:04;;;;;;;73.90;69.32;;;;;;;15.86;82.97;99599.69;1766631;81;25545;-67
2023/08/04 03:45:32;;;;;;;73.55;68.97;;;;;;;15.89;83.12;99607.16;1766564;81;25594;-66
2023/08/04 03:47:58;;;;;;;73.52;69.03;;;;;;;15.90;83.19;99599.17;1766573;81;25551;-67
2023/08/04 03:50:25;;;;;;;74.27;69.32;;;;;;;15.94;83.36;99608.22;1766696;81;27325;-67
2023/08/04 03:52:52;;;;;;;73.78;69.22;;;;;;;15.97;83.40;99609.42;1766448;81;25355;-67
2023/08/04 03:55:18;;;;;;;74.25;69.70;;;;;;;15.99;83.44;99602.47;1766581;81;25415;-66
2023/08/04 03:57:44;;;;;;;74.55;70.05;;;;;;;16.02;83.40;99598.22;1766500;81;25554;-66
2023/08/04 04:00:11;;;;;;;74.85;70.28;;;;;;;16.04;83.40;99595.35;1766621;81;25548;-66
2023/08/04 04:02:40;;;;;;;74.85;70.10;;;;;;;16.08;83.43;99594.63;1766549;81;27362;-66
2023/08/04 04:05:08;;;;;;;74.37;69.72;;;;;;;16.10;83.48;99598.56;1766482;80;25530;-67
2023/08/04 04:07:34;;;;;;;73.07;68.37;;;;;;;16.13;83.46;99605.25;1766620;81;25427;-66
2023/08/04 04:10:03;;;;;;;75.28;70.67;;;;;;;16.14;83.44;99608.97;1745026;81;25467;-66
2023/08/04 04:12:29;;;;;;;74.77;70.32;;;;;;;16.17;83.30;99618.36;1766598;81;25548;-66
2023/08/04 04:14:56;;;;;;;74.37;69.77;;;;;;;16.16;83.29;99617.58;1766612;81;27938;-66
2023/08/04 04:17:23;;;;;;;73.50;68.72;;;;;;;16.19;83.37;99622.88;1766511;81;25741;-66
2023/08/04 04:19:49;;;;;;;74.92;69.95;;;;;;;16.20;83.46;99621.14;1766577;81;25449;-66
2023/08/04 04:22:15;;;;;;;74.00;69.40;;;;;;;16.24;83.54;99625.30;1766529;81;25370;-66
2023/08/04 04:24:42;;;;;;;73.70;69.20;;;;;;;16.27;83.58;99626.53;1766579;81;25601;-66
2023/08/04 04:27:08;;;;;;;74.47;69.80;;;;;;;16.30;83.62;99627.95;1766642;81;27371;-66
2023/08/04 04:29:35;;;;;;;74.03;69.50;;;;;;;16.32;83.63;99632.46;1766537;81;25623;-66
2023/08/04 04:32:01;;;;;;;74.35;69.85;;;;;;;16.35;83.66;99634.47;1766551;81;25367;-66
2023/08/04 04:34:27;;;;;;;73.47;69.05;;;;;;;16.41;83.70;99637.12;1766554;81;25427;-66
2023/08/04 04:36:55;;;;;;;74.37;69.80;;;;;;;16.45;83.71;99633.08;1770720;81;25367;-65
2023/08/04 04:39:21;;;;;;;72.82;68.33;;;;;;;16.50;83.68;99633.33;1766667;81;27315;-66
2023/08/04 04:41:47;;;;;;;72.87;68.35;;;;;;;16.55;83.66;99640.66;1766414;81;25595;-66
2023/08/04 04:44:13;;;;;;;73.25;68.78;;;;;;;16.63;84.02;99641.55;1766549;81;25497;-66
2023/08/04 04:46:40;;;;;;;72.65;68.25;;;;;;;16.70;84.09;99652.61;1766468;81;25608;-66
2023/08/04 04:49:06;;;;;;;74.17;69.53;;;;;;;16.77;83.52;99654.08;1770582;80;32397;-66
2023/08/04 04:51:32;;;;;;;73.15;68.52;;;;;;;16.84;83.39;99654.80;1744960;81;27261;-66
2023/08/04 04:53:59;;;;;;;72.85;68.42;;;;;;;16.89;83.27;99654.48;1766458;81;25599;-66
2023/08/04 04:56:26;;;;;;;74.35;69.77;;;;;;;16.95;83.16;99652.22;1766496;81;25573;-66
2023/08/04 04:58:52;;;;;;;73.33;68.92;;;;;;;17.01;83.12;99660.88;1766494;81;25690;-66
2023/08/04 05:01:19;;;;;;;73.97;69.47;;;;;;;17.06;82.90;99656.47;1766497;81;25425;-66
2023/08/04 05:03:45;;;;;;;72.25;67.55;;;;;;;17.12;82.63;99659.88;1766401;80;27275;-66
2023/08/04 05:06:12;;;;;;;73.33;68.67;;;;;;;17.16;82.51;99660.73;1766484;81;25597;-65
2023/08/04 05:08:39;;;;;;;73.00;68.50;;;;;;;17.21;82.15;99656.09;1766598;81;25554;-66
2023/08/04 05:11:05;;;;;;;72.37;67.80;;;;;;;17.27;82.30;99666.34;1766470;81;25567;-66
2023/08/04 05:13:32;;;;;;;71.72;67.53;;;;;;;17.35;82.24;99669.98;1770744;80;25148;-66
2023/08/04 05:15:58;;;;;;;72.08;67.70;;;;;;;17.44;82.23;99671.84;1745277;81;27322;-66
2023/08/04 05:18:25;;;;;;;71.45;67.20;;;;;;;17.52;82.11;99662.58;1766523;81;25591;-66
2023/08/04 05:20:51;;;;;;;71.17;66.85;;;;;;;17.65;82.50;99669.95;1766535;81;25504;-66
2023/08/04 05:23:17;;;;;;;72.62;68.00;;;;;;;17.78;82.14;99670.52;1766459;81;25598;-66
2023/08/04 05:25:44;;;;;;;71.77;67.53;;;;;;;17.89;81.85;99672.02;1766516;81;25449;-66
2023/08/04 05:28:30;;;;;;;73.28;68.87;;;;;;;18.00;80.96;99668.06;1766474;81;28107;-66
2023/08/04 05:31:03;;;;;;;72.37;68.12;;;;;;;18.09;80.81;99674.79;1766477;81;25581;-66
2023/08/04 05:33:32;;;;;;;71.55;67.30;;;;;;;18.24;80.48;99683.16;1766486;81;25597;-66
2023/08/04 05:36:00;;;;;;;71.97;67.87;;;;;;;18.40;79.43;99677.44;1766570;81;25613;-66
2023/08/04 05:38:26;;;;;;;70.67;66.40;;;;;;;18.53;80.53;99677.38;1766512;81;25572;-66
2023/08/04 05:40:54;;;;;;;70.90;66.80;;;;;;;18.70;79.92;99681.44;1766463;81;27259;-65
2023/08/04 05:43:21;;;;;;;71.92;67.67;;;;;;;18.85;79.08;99679.63;1766416;81;25393;-66
2023/08/04 05:45:48;;;;;;;71.22;66.92;;;;;;;18.99;78.96;99678.95;1766478;81;25526;-66
2023/08/04 05:48:16;;;;;;;68.70;64.77;;;;;;;19.14;78.35;99677.88;1766406;81;25616;-65
2023/08/04 05:50:43;;;;;;;71.33;67.12;;;;;;;19.23;77.32;99683.79;1766484;81;25415;-66
2023/08/04 05:53:10;;;;;;;70.22;66.02;;;;;;;19.33;77.07;99692.48;1766421;81;27332;-66
2023/08/04 05:55:38;;;;;;;70.22;66.12;;;;;;;19.42;76.42;99690.16;1766418;81;25781;-65
2023/08/04 05:58:06;;;;;;;71.30;66.77;;;;;;;19.51;75.94;99697.48;1766524;81;25515;-65
2023/08/04 06:00:35;;;;;;;70.57;66.22;;;;;;;19.58;74.53;99704.37;1766668;81;26287;-66
2023/08/04 06:03:04;;;;;;;73.92;69.45;;;;;;;19.62;74.82;99693.41;1766653;80;25380;-66
2023/08/04 06:05:31;;;;;;;70.45;66.00;;;;;;;19.69;74.72;99692.66;1766566;80;28018;-66
2023/08/04 06:07:58;;;;;;;70.57;66.47;;;;;;;19.76;74.76;99694.86;1766348;81;25574;-65
2023/08/04 06:10:25;;;;;;;69.15;65.15;;;;;;;19.85;74.60;99697.84;1766445;81;25573;-65
2023/08/04 06:12:52;;;;;;;70.20;66.07;;;;;;;19.93;74.33;99701.59;1766424;81;25773;-65
2023/08/04 06:15:20;;;;;;;69.90;65.78;;;;;;;20.04;73.98;99704.95;1766534;81;25384;-65
2023/08/04 06:17:47;;;;;;;68.40;64.45;;;;;;;20.04;73.72;99708.51;1766486;81;27362;-65
2023/08/04 06:20:14;;;;;;;68.67;64.47;;;;;;;20.14;73.81;99713.81;1766395;81;25409;-65
2023/08/04 06:22:40;;;;;;;67.42;63.35;;;;;;;20.26;73.70;99707.17;1766488;81;25540;-66
2023/08/04 06:25:08;;;;;;;67.75;63.75;;;;;;;20.34;73.42;99713.66;1770475;81;25837;-65
2023/08/04 06:27:35;;;;;;;67.67;63.87;;;;;;;20.45;72.78;99711.52;1766490;81;25546;-65
2023/08/04 06:30:03;;;;;;;67.95;63.98;;;;;;;20.51;71.88;99705.26;1766408;81;29648;-65
2023/08/04 06:32:29;;;;;;;66.12;62.43;;;;;;;20.61;72.56;99724.31;1766353;81;25607;-65
2023/08/04 06:34:56;;;;;;;68.20;63.80;;;;;;;20.74;72.05;99722.58;1766457;81;25379;-65
2023/08/04 06:37:24;;;;;;;68.33;64.37;;;;;;;20.78;71.49;99730.25;1766390;81;25685;-65
2023/08/04 06:39:52;;;;;;;67.15;63.38;;;;;;;20.85;70.71;99733.77;1766506;81;25608;-65
2023/08/04 06:42:20;;;;;;;67.95;63.68;;;;;;;20.85;70.58;99739.27;1766463;81;27244;-65
2023/08/04 06:44:47;;;;;;;67.42;63.28;;;;;;;20.84;70.11;99737.72;1766360;81;26001;-64
2023/08/04 06:47:15;;;;;;;67.58;63.50;;;;;;;20.86;69.42;99731.83;1766488;81;25513;-64
2023/08/04 06:49:43;;;;;;;67.67;63.68;;;;;;;20.87;69.38;99729.26;1766430;81;25599;-65
2023/08/04 06:52:10;;;;;;;68.12;64.27;;;;;;;20.92;69.50;99731.61;1766461;81;25583;-65
2023/08/04 06:54:37;;;;;;;68.60;64.55;;;;;;;20.98;69.02;99744.39;1766437;81;26543;-65
2023/08/04 06:57:06;;;;;;;66.57;62.65;;;;;;;20.99;69.34;99731.61;1766336;81;25389;-65
2023/08/04 06:59:34;;;;;;;67.87;63.83;;;;;;;21.11;69.34;99737.89;1766433;81;25607;-65
2023/08/04 07:02:00;;;;;;;67.85;63.85;;;;;;;21.24;69.34;99732.19;1766391;81;25677;-65
2023/08/04 07:04:27;;;;;;;67.37;63.50;;;;;;;21.37;68.96;99749.08;1769566;80;25509;-65
2023/08/04 07:06:57;;;;;;;66.92;62.90;;;;;;;21.50;68.41;99748.09;1754348;80;27383;-65
2023/08/04 07:09:26;;;;;;;66.33;62.25;;;;;;;21.52;67.51;99732.77;1782451;80;25531;-65
2023/08/04 07:11:54;;;;;;;68.05;64.17;;;;;;;21.60;67.50;99735.67;1782666;80;25510;-65
2023/08/04 07:14:20;;;;;;;66.80;62.93;;;;;;;21.64;67.04;99732.33;1782517;80;25619;-65
2023/08/04 07:16:46;;;;;;;65.75;62.05;;;;;;;21.68;66.42;99738.42;1782585;80;25573;-65
2023/08/04 07:19:16;;;;;;;65.90;62.10;;;;;;;21.76;66.55;99731.69;1782595;80;27235;-65
2023/08/04 07:21:44;;;;;;;67.40;63.15;;;;;;;21.86;66.54;99728.70;1782195;80;25428;-65
2023/08/04 07:24:12;;;;;;;67.10;63.10;;;;;;;22.08;66.00;99743.17;1782954;80;25419;-65
2023/08/04 07:26:39;;;;;;;65.67;62.13;;;;;;;22.09;66.44;99729.00;1782679;80;25613;-65
2023/08/04 07:29:05;;;;;;;65.62;62.03;;;;;;;22.31;66.55;99734.44;1780226;80;25585;-65
2023/08/04 07:31:32;;;;;;;65.90;61.77;;;;;;;22.51;65.87;99738.24;1782818;80;27385;-65
2023/08/04 07:33:59;;;;;;;64.67;61.18;;;;;;;22.70;65.93;99740.28;1782614;80;25718;-65
2023/08/04 07:36:25;;;;;;;64.97;61.42;;;;;;;22.90;64.79;99743.27;1782740;80;25539;-65
2023/08/04 07:38:51;;;;;;;64.63;60.83;;;;;;;23.05;63.11;99750.22;1782664;80;31876;-65
2023/08/04 07:41:21;;;;;;;65.40;61.63;;;;;;;23.19;63.00;99756.84;1782795;80;30073;-65
2023/08/04 07:43:48;;;;;;;64.60;61.20;;;;;;;23.50;63.68;99760.50;1782770;80;27367;-65
2023/08/04 07:46:19;;;;;;;66.60;62.90;;;;;;;23.81;62.88;99758.59;1780004;80;25388;-65
2023/08/04 07:48:45;;;;;;;68.70;64.92;;;;;;;24.17;62.13;99765.66;1782734;80;25432;-65
2023/08/04 07:51:11;;;;;;;66.95;63.05;;;;;;;24.47;61.97;99773.73;1782671;80;25628;-66
2023/08/04 07:53:37;;;;;;;66.05;62.55;;;;;;;24.88;61.71;99779.09;1782715;80;25585;-65
2023/08/04 07:56:03;;;;;;;68.75;64.67;;;;;;;25.13;58.10;99793.11;1782723;80;27257;-66
2023/08/04 07:58:30;;;;;;;65.70;62.20;;;;;;;25.07;57.27;99783.12;1754278;80;25595;-65
2023/08/04 08:00:56;;;;;;;66.17;62.67;;;;;;;24.86;56.13;99781.50;1782720;80;25548;-65
2023/08/04 08:03:22;;;;;;;66.35;62.38;;;;;;;24.83;56.14;99789.25;1782641;80;25673;-65
2023/08/04 08:05:50;;;;;;;65.80;62.20;;;;;;;24.75;55.84;99785.80;1772189;80;25831;-66
2023/08/04 08:08:18;;;;;;;65.42;61.65;;;;;;;24.62;55.52;99791.75;1766561;81;27304;-66
2023/08/04 08:10:45;;;;;;;64.95;61.25;;;;;;;24.49;54.75;99794.25;1766461;81;25554;-65
2023/08/04 08:13:12;;;;;;;67.10;63.25;;;;;;;24.36;55.09;99801.53;1766510;81;25617;-66
2023/08/04 08:15:39;;;;;;;66.25;62.83;;;;;;;24.13;55.13;99796.71;1766487;81;25669;-65
2023/08/04 08:18:05;;;;;;;66.80;63.08;;;;;;;24.05;55.56;99793.24;1766653;81;25388;-66
2023/08/04 08:20:32;;;;;;;66.20;62.70;;;;;;;24.10;56.17;99801.07;1766489;81;27380;-65
2023/08/04 08:22:58;;;;;;;66.07;62.58;;;;;;;24.05;55.98;99803.69;1766388;81;25366;-65
2023/08/04 08:25:24;;;;;;;64.45;61.10;;;;;;;24.15;56.82;99803.37;1766535;81;25510;-65
2023/08/04 08:27:51;;;;;;;64.00;60.67;;;;;;;24.29;56.39;99807.94;1766456;81;27772;-65
2023/08/04 08:30:18;;;;;;;65.42;61.85;;;;;;;24.39;56.54;99803.47;1766587;81;25600;-65
2023/08/04 08:32:44;;;;;;;64.95;61.35;;;;;;;24.70;57.22;99796.55;1766478;81;29514;-66
2023/08/04 08:35:11;;;;;;;65.28;61.77;;;;;;;24.90;56.88;99796.66;1766396;81;25506;-65
2023/08/04 08:37:37;;;;;;;64.92;61.10;;;;;;;24.93;55.36;99805.50;1766537;81;25589;-66
2023/08/04 08:40:05;;;;;;;65.62;61.83;;;;;;;24.96;55.27;99793.58;1766441;81;27900;-65
2023/08/04 08:42:34;;;;;;;64.12;60.73;;;;;;;25.26;55.38;99793.33;1763570;81;25495;-66
2023/08/04 08:45:01;;;;;;;64.85;61.45;;;;;;;25.44;55.34;99797.19;1766510;81;27307;-66
2023/08/04 08:47:35;;;;;;;64.07;60.23;;;;;;;25.67;54.67;99801.89;1766440;81;25619;-65
2023/08/04 08:50:06;;;;;;;66.37;62.83;;;;;;;25.83;54.20;99812.27;1766646;81;25596;-65
2023/08/04 08:52:39;;;;;;;65.10;61.70;;;;;;;26.08;53.48;99820.13;1766517;81;25608;-65
2023/08/04 08:55:08;;;;;;;65.03;61.63;;;;;;;26.18;52.01;99824.66;1739443;81;25606;-65
2023/08/04 08:57:36;;;;;;;66.17;62.78;;;;;;;26.37;52.78;99834.16;1766653;81;27148;-65
2023/08/04 09:00:05;;;;;;;67.12;63.63;;;;;;;26.64;50.88;99846.48;1745316;81;25612;-66
2023/08/04 09:02:33;;;;;;;65.87;62.55;;;;;;;26.64;50.36;99843.71;1720562;81;25482;-67
2023/08/04 09:05:00;;;;;;;65.90;62.40;;;;;;;26.67;50.90;99837.16;1768075;80;26308;-65
2023/08/04 09:07:26;;;;;;;64.70;61.35;;;;;;;26.67;49.40;99847.63;1777457;80;25593;-65
2023/08/04 09:09:53;;;;;;;66.02;62.15;;;;;;;26.77;50.17;99838.29;1777410;80;27306;-65
2023/08/04 09:12:24;;;;;;;61.35;58.17;;;;;;;27.04;50.96;99838.67;1777301;80;25333;-65
2023/08/04 09:15:08;;;;;;;62.67;59.47;;;;;;;27.52;49.27;99846.05;1905512;74;32826;-66
